Time;durP1;ratioP1;P1;durP2;ratioP2;P2;SDS_P1;SDS_P2;PMS_P1;PMS_P2;Temp;Humidity;BMP_temperature;BMP_pressure;BME280_temperature;BME280_humidity;BME280_pressure;Samples;Min_cycle;Max_cycle;Signal;HPM_P1;HPM_P2
2022/06/19 00:02:16;;;;;;;9.33;2.77;;;20.20;28.10;;;;;;5071538;27;46021;-63
2022/06/19 00:04:44;;;;;;;8.90;2.90;;;20.10;28.20;;;;;;5065751;28;46394;-61
2022/06/19 00:07:10;;;;;;;15.50;2.97;;;20.10;28.40;;;;;;5072020;28;46483;-63
2022/06/19 00:09:36;;;;;;;13.23;3.93;;;20.00;28.40;;;;;;5070321;28;46506;-60
2022/06/19 00:12:02;;;;;;;10.17;3.47;;;20.00;28.40;;;;;;5073135;28;46044;-62
2022/06/19 00:14:28;;;;;;;10.50;3.00;;;19.80;28.60;;;;;;5068683;28;46437;-64
2022/06/19 00:16:54;;;;;;;11.97;3.40;;;19.60;29.00;;;;;;5073846;28;46379;-64
2022/06/19 00:19:19;;;;;;;12.23;3.10;;;19.40;29.60;;;;;;5073569;28;46558;-61
2022/06/19 00:21:47;;;;;;;7.97;2.70;;;19.20;30.10;;;;;;5070337;28;46373;-62
2022/06/19 00:24:13;;;;;;;6.93;2.63;;;19.00;31.10;;;;;;5075510;28;46456;-62
2022/06/19 00:26:38;;;;;;;11.03;2.80;;;18.90;31.50;;;;;;5070728;28;46774;-63
2022/06/19 00:29:04;;;;;;;11.43;3.20;;;18.80;31.60;;;;;;5072208;28;46811;-60
2022/06/19 00:31:29;;;;;;;15.60;3.17;;;18.80;31.60;;;;;;5071959;28;46694;-62
2022/06/19 00:33:55;;;;;;;8.90;3.00;;;18.90;31.70;;;;;;5071133;28;46425;-64
2022/06/19 00:36:21;;;;;;;12.30;3.63;;;18.90;31.60;;;;;;5074273;28;46650;-62
2022/06/19 00:38:48;;;;;;;10.40;2.90;;;18.80;31.60;;;;;;5073227;28;46491;-62
2022/06/19 00:41:14;;;;;;;14.17;3.00;;;18.90;31.80;;;;;;5075311;28;47103;-62
2022/06/19 00:44:01;;;;;;;13.07;2.73;;;18.90;31.80;;;;;;5074094;28;46354;-62
2022/06/19 00:46:58;;;;;;;13.13;3.30;;;19.00;33.40;;;;;;5073664;28;45959;-62
2022/06/19 00:49:31;;;;;;;11.37;3.20;;;19.00;31.70;;;;;;5072869;28;46563;-62
2022/06/19 00:52:30;;;;;;;15.63;3.33;;;19.00;31.40;;;;;;5073643;28;46535;-63
2022/06/19 00:54:57;;;;;;;19.67;3.40;;;19.00;31.70;;;;;;5065066;27;46317;-62
2022/06/19 00:57:25;;;;;;;8.47;2.77;;;19.00;31.10;;;;;;5071788;28;46420;-63
2022/06/19 00:59:59;;;;;;;6.87;2.90;;;19.00;31.30;;;;;;5071185;28;46330;-63
2022/06/19 01:02:25;;;;;;;16.07;3.37;;;19.00;31.30;;;;;;5072046;28;48161;-62
2022/06/19 01:04:55;;;;;;;10.20;2.90;;;19.00;31.20;;;;;;5068882;28;46247;-61
2022/06/19 01:07:22;;;;;;;13.20;3.10;;;18.90;31.50;;;;;;5072104;28;46637;-62
2022/06/19 01:09:49;;;;;;;10.07;3.30;;;18.80;31.60;;;;;;5071060;28;46397;-63
2022/06/19 01:12:15;;;;;;;12.37;3.13;;;18.70;31.90;;;;;;5072193;28;48114;-61
2022/06/19 01:14:44;;;;;;;15.37;3.70;;;18.70;32.20;;;;;;5071992;28;45788;-61
2022/06/19 01:17:12;;;;;;;15.33;3.43;;;18.70;32.80;;;;;;5072779;28;46397;-63
2022/06/19 01:19:41;;;;;;;10.80;3.50;;;18.60;32.70;;;;;;5069733;28;46521;-62
2022/06/19 01:22:26;;;;;;;11.37;3.10;;;18.40;32.60;;;;;;5067542;28;46380;-62
2022/06/19 01:25:17;;;;;;;5.77;2.47;;;18.10;34.00;;;;;;5073093;28;46392;-61
2022/06/19 01:30:36;;;;;;;11.33;3.70;;;17.70;35.10;;;;;;5069835;28;46429;-63
2022/06/19 01:33:07;;;;;;;10.50;3.80;;;17.50;35.60;;;;;;5068078;28;46347;-61
2022/06/19 01:35:34;;;;;;;7.67;2.70;;;17.40;36.10;;;;;;5069778;28;46384;-62
2022/06/19 01:38:05;;;;;;;16.70;3.10;;;17.30;36.60;;;;;;5072027;28;45900;-61
2022/06/19 01:40:34;;;;;;;11.23;3.90;;;17.30;37.10;;;;;;5070828;28;46364;-63
2022/06/19 01:42:59;;;;;;;17.50;4.53;;;17.30;37.20;;;;;;5070120;28;46448;-62
2022/06/19 01:45:25;;;;;;;21.63;4.10;;;17.40;37.20;;;;;;5067875;28;46425;-61
2022/06/19 01:47:51;;;;;;;13.93;4.30;;;17.40;37.20;;;;;;5072937;28;46341;-62
2022/06/19 01:50:22;;;;;;;13.37;4.27;;;17.40;37.10;;;;;;5069254;28;46445;-63
2022/06/19 01:52:53;;;;;;;10.97;3.83;;;17.40;37.30;;;;;;5071401;28;47069;-62
2022/06/19 01:55:20;;;;;;;12.87;3.80;;;17.40;37.60;;;;;;5069545;28;46407;-63
2022/06/19 01:57:50;;;;;;;17.63;3.90;;;17.50;37.40;;;;;;5070621;28;46394;-62
2022/06/19 02:00:20;;;;;;;12.13;4.50;;;17.60;37.40;;;;;;5068319;28;46520;-62
2022/06/19 02:02:53;;;;;;;18.50;4.33;;;17.70;37.20;;;;;;5066828;28;46486;-63
2022/06/19 02:05:19;;;;;;;14.00;4.53;;;17.80;36.80;;;;;;5068103;28;46417;-61
2022/06/19 02:07:46;;;;;;;16.00;3.90;;;17.80;36.50;;;;;;5071060;28;46302;-62
2022/06/19 02:10:11;;;;;;;10.63;3.23;;;17.90;36.60;;;;;;5076578;28;46381;-61
2022/06/19 02:12:37;;;;;;;11.50;3.97;;;17.80;36.80;;;;;;5065440;28;46433;-60
2022/06/19 02:15:08;;;;;;;9.07;3.60;;;17.60;37.10;;;;;;5074143;28;46559;-62
2022/06/19 02:17:42;;;;;;;14.00;3.60;;;17.50;37.70;;;;;;5070586;28;46523;-62
2022/06/19 02:20:09;;;;;;;10.53;3.80;;;17.30;38.10;;;;;;5065888;28;46526;-61
2022/06/19 02:22:35;;;;;;;11.77;3.70;;;17.20;38.50;;;;;;5071811;28;46420;-62
2022/06/19 02:25:02;;;;;;;31.13;4.47;;;17.10;38.80;;;;;;5076518;28;46444;-62
2022/06/19 02:27:30;;;;;;;11.77;3.80;;;17.10;39.20;;;;;;5069598;28;46375;-62
2022/06/19 02:29:56;;;;;;;20.07;4.60;;;17.10;39.40;;;;;;5070262;28;46289;-63
2022/06/19 02:32:27;;;;;;;10.13;3.53;;;17.10;39.60;;;;;;5068956;28;47130;-61
2022/06/19 02:34:53;;;;;;;19.63;3.70;;;17.00;39.50;;;;;;5071654;28;46733;-60
2022/06/19 02:37:22;;;;;;;10.53;3.77;;;17.00;39.70;;;;;;5074167;28;46765;-64
2022/06/19 02:39:47;;;;;;;11.57;3.57;;;17.00;39.90;;;;;;5068511;28;46512;-63
2022/06/19 02:42:28;;;;;;;15.50;4.80;;;17.00;40.00;;;;;;5069455;28;46224;-62
2022/06/19 02:45:05;;;;;;;15.23;4.50;;;17.00;40.30;;;;;;5068694;28;46405;-64
2022/06/19 02:47:34;;;;;;;18.97;4.13;;;17.00;40.10;;;;;;5070336;28;47007;-63
2022/06/19 02:50:00;;;;;;;15.60;4.67;;;17.00;39.90;;;;;;5070704;28;46459;-62
2022/06/19 02:52:26;;;;;;;17.33;4.63;;;17.10;40.00;;;;;;5070919;28;46391;-63
2022/06/19 02:54:52;;;;;;;12.27;4.00;;;17.00;39.90;;;;;;5071687;28;46601;-63
2022/06/19 02:57:18;;;;;;;14.27;4.00;;;17.10;40.00;;;;;;5066075;28;46391;-64
2022/06/19 02:59:44;;;;;;;22.93;3.80;;;17.00;40.00;;;;;;5068461;28;46397;-62
2022/06/19 03:02:12;;;;;;;13.03;3.60;;;17.00;40.30;;;;;;5072062;28;47265;-63
2022/06/19 03:04:52;;;;;;;12.80;3.70;;;17.00;40.40;;;;;;5066278;28;46468;-61
2022/06/19 03:07:17;;;;;;;15.00;2.97;;;17.00;40.80;;;;;;5071710;28;46414;-62
2022/06/19 03:09:43;;;;;;;10.27;3.50;;;17.00;40.60;;;;;;5069502;28;46487;-62
2022/06/19 03:12:10;;;;;;;9.50;3.40;;;16.90;40.80;;;;;;5070738;28;46503;-62
2022/06/19 03:14:36;;;;;;;15.60;3.77;;;16.80;41.00;;;;;;5071913;28;46413;-62
2022/06/19 03:17:01;;;;;;;6.43;3.10;;;16.70;41.30;;;;;;5068891;28;46373;-63
2022/06/19 03:19:27;;;;;;;10.20;3.30;;;16.70;41.60;;;;;;5068923;28;46434;-63
2022/06/19 03:21:52;;;;;;;15.83;3.17;;;16.70;41.80;;;;;;5066141;28;47437;-61
2022/06/19 03:24:18;;;;;;;8.80;3.73;;;16.70;41.70;;;;;;5069076;28;46328;-62
2022/06/19 03:26:44;;;;;;;11.53;3.73;;;16.60;41.90;;;;;;5069713;28;46411;-61
2022/06/19 03:29:10;;;;;;;11.10;4.00;;;16.60;41.90;;;;;;5066207;28;46337;-63
2022/06/19 03:31:36;;;;;;;11.60;3.70;;;16.70;42.00;;;;;;5067698;28;46943;-61
2022/06/19 03:34:01;;;;;;;18.77;3.90;;;16.70;42.10;;;;;;5067483;28;46285;-62
2022/06/19 03:36:27;;;;;;;12.33;3.63;;;16.80;42.00;;;;;;5066111;28;46459;-63
2022/06/19 03:38:53;;;;;;;19.20;4.30;;;16.90;41.80;;;;;;5074145;28;46523;-64
2022/06/19 03:41:18;;;;;;;12.73;3.97;;;17.10;41.60;;;;;;5069586;28;47141;-62
2022/06/19 03:43:44;;;;;;;10.83;3.20;;;17.20;41.20;;;;;;5072549;28;45762;-62
2022/06/19 03:46:13;;;;;;;13.53;3.53;;;17.40;41.00;;;;;;5073204;28;46435;-62
2022/06/19 03:48:44;;;;;;;13.87;3.90;;;17.60;40.80;;;;;;5070207;27;46632;-62
2022/06/19 03:51:10;;;;;;;8.43;3.00;;;17.70;40.50;;;;;;5072756;28;46707;-63
2022/06/19 03:53:37;;;;;;;12.77;3.50;;;17.90;40.20;;;;;;5074284;28;46683;-64
2022/06/19 03:56:04;;;;;;;12.07;3.43;;;17.90;40.00;;;;;;5073699;28;46473;-63
2022/06/19 03:58:48;;;;;;;12.03;3.97;;;18.00;40.20;;;;;;5073557;28;46602;-62
2022/06/19 04:01:19;;;;;;;8.80;3.13;;;18.00;40.30;;;;;;5072554;28;46846;-62
2022/06/19 04:03:46;;;;;;;8.77;3.80;;;18.00;40.30;;;;;;5072604;28;46451;-63
2022/06/19 04:06:14;;;;;;;11.17;3.07;;;18.10;40.10;;;;;;5073789;28;45894;-65
2022/06/19 04:08:41;;;;;;;10.63;3.23;;;18.20;40.10;;;;;;5070027;28;46413;-64
2022/06/19 04:11:07;;;;;;;21.03;4.27;;;18.30;40.00;;;;;;5072701;28;46761;-63
2022/06/19 04:13:36;;;;;;;15.40;4.73;;;18.50;39.60;;;;;;5070267;28;46536;-63
2022/06/19 04:16:04;;;;;;;22.83;4.80;;;18.80;39.20;;;;;;5070925;28;46484;-63
2022/06/19 04:18:30;;;;;;;15.83;4.70;;;19.00;38.80;;;;;;5069137;28;46146;-66
2022/06/19 04:20:57;;;;;;;15.47;3.90;;;19.20;38.40;;;;;;5074088;28;46577;-62
2022/06/19 04:23:24;;;;;;;15.87;4.00;;;19.40;37.80;;;;;;5072275;28;46365;-62
2022/06/19 04:25:51;;;;;;;27.03;4.27;;;19.70;37.20;;;;;;5070482;28;46474;-63
2022/06/19 04:28:18;;;;;;;16.70;4.80;;;20.00;36.50;;;;;;5073647;28;46602;-64
2022/06/19 04:30:46;;;;;;;17.40;4.10;;;20.30;36.90;;;;;;5067410;28;46384;-62
2022/06/19 04:33:18;;;;;;;20.63;4.20;;;20.60;34.90;;;;;;5071558;28;46380;-62
2022/06/19 04:35:44;;;;;;;20.27;4.90;;;20.80;34.80;;;;;;5069809;28;45764;-65
2022/06/19 04:38:10;;;;;;;15.93;4.37;;;20.90;34.90;;;;;;5070259;28;46353;-63
2022/06/19 04:40:37;;;;;;;19.33;4.40;;;21.20;34.60;;;;;;5074328;28;48219;-65
2022/06/19 04:43:03;;;;;;;13.00;4.10;;;21.50;33.80;;;;;;5068955;28;46384;-62
2022/06/19 04:45:29;;;;;;;23.83;4.80;;;22.20;32.60;;;;;;5074789;28;46473;-61
2022/06/19 04:47:54;;;;;;;20.23;4.97;;;23.50;30.40;;;;;;5071345;28;45896;-63
2022/06/19 04:50:20;;;;;;;14.97;5.23;;;24.60;29.60;;;;;;5075049;27;46960;-63
2022/06/19 04:52:45;;;;;;;12.80;4.13;;;25.20;27.40;;;;;;5074509;28;46476;-62
2022/06/19 04:55:12;;;;;;;19.47;4.87;;;25.90;26.40;;;;;;5076279;28;46331;-66
2022/06/19 04:57:38;;;;;;;15.17;4.10;;;26.30;26.70;;;;;;5074612;28;46322;-64
2022/06/19 05:00:12;;;;;;;16.20;4.80;;;26.90;25.50;;;;;;5070617;28;46392;-64
2022/06/19 05:02:38;;;;;;;13.90;3.80;;;27.20;24.40;;;;;;5069628;28;46398;-65
2022/06/19 05:05:05;;;;;;;14.73;4.20;;;27.70;23.80;;;;;;5073139;28;46381;-64
2022/06/19 05:07:32;;;;;;;18.20;4.13;;;28.20;22.70;;;;;;5069051;28;46318;-62
2022/06/19 05:09:58;;;;;;;21.23;4.27;;;28.50;21.50;;;;;;5072542;28;47253;-63
2022/06/19 05:12:23;;;;;;;19.50;4.30;;;29.10;20.20;;;;;;5072223;28;46491;-62
2022/06/19 05:14:49;;;;;;;19.30;4.50;;;29.80;18.90;;;;;;5069971;28;46387;-63
2022/06/19 05:17:14;;;;;;;15.27;5.30;;;30.20;17.70;;;;;;5073166;28;46413;-62
2022/06/19 05:19:41;;;;;;;22.63;4.20;;;30.00;17.60;;;;;;5068551;28;47010;-63
2022/06/19 05:22:07;;;;;;;17.90;3.60;;;30.40;17.80;;;;;;5073253;28;46387;-65
2022/06/19 05:24:32;;;;;;;11.37;4.10;;;30.80;16.70;;;;;;5071330;28;46423;-64
2022/06/19 05:26:58;;;;;;;30.07;4.17;;;30.60;16.60;;;;;;5071349;28;46485;-63
2022/06/19 05:29:24;;;;;;;18.60;4.23;;;30.20;16.70;;;;;;5068465;28;46631;-63
2022/06/19 05:31:50;;;;;;;16.57;4.67;;;30.30;16.40;;;;;;5073116;28;46388;-64
2022/06/19 05:34:16;;;;;;;16.03;4.00;;;30.60;15.90;;;;;;5067363;28;46354;-64
2022/06/19 05:36:42;;;;;;;16.83;4.03;;;31.30;14.90;;;;;;5065502;28;46367;-63
2022/06/19 05:39:09;;;;;;;16.43;4.33;;;31.90;13.70;;;;;;5067238;28;47211;-63
2022/06/19 05:41:37;;;;;;;14.37;4.27;;;32.30;13.00;;;;;;5067935;28;46425;-64
2022/06/19 05:44:03;;;;;;;14.60;3.77;;;32.90;12.30;;;;;;5068373;28;46491;-63
2022/06/19 05:46:29;;;;;;;20.57;4.60;;;33.30;11.60;;;;;;5069754;28;46589;-64
2022/06/19 05:48:54;;;;;;;15.23;4.40;;;33.60;11.00;;;;;;5070162;28;46487;-64
2022/06/19 05:51:22;;;;;;;17.40;4.97;;;33.80;10.70;;;;;;5069627;28;46398;-63
2022/06/19 05:53:52;;;;;;;16.80;4.10;;;34.00;9.90;;;;;;5068239;28;45928;-62
2022/06/19 05:56:18;;;;;;;22.93;5.30;;;33.50;11.10;;;;;;5066226;28;46528;-63
2022/06/19 05:58:44;;;;;;;15.30;4.30;;;32.40;13.10;;;;;;5065891;27;46457;-63
2022/06/19 06:01:11;;;;;;;22.93;4.13;;;31.50;14.70;;;;;;5068310;28;46290;-64
2022/06/19 06:03:37;;;;;;;17.60;3.90;;;30.90;15.90;;;;;;5075908;28;46465;-62
2022/06/19 06:06:07;;;;;;;15.00;4.60;;;30.50;17.00;;;;;;5072499;28;46451;-63
2022/06/19 06:08:36;;;;;;;24.20;5.67;;;30.30;17.10;;;;;;5068854;28;47385;-62
2022/06/19 06:11:01;;;;;;;19.33;4.67;;;30.00;17.00;;;;;;5067851;28;46386;-63
2022/06/19 06:13:29;;;;;;;19.83;4.33;;;29.90;16.60;;;;;;5074319;28;46661;-63
2022/06/19 06:15:55;;;;;;;21.70;5.87;;;29.70;16.40;;;;;;5072507;28;46436;-62
2022/06/19 06:18:22;;;;;;;24.63;5.00;;;29.70;16.30;;;;;;5067791;28;49083;-62
2022/06/19 06:21:20;;;;;;;23.97;5.00;;;29.50;16.20;;;;;;5071271;28;46377;-63
2022/06/19 06:23:47;;;;;;;20.70;4.43;;;29.50;16.00;;;;;;5059626;28;46517;-63
2022/06/19 06:26:21;;;;;;;15.50;4.57;;;29.50;16.10;;;;;;5070247;28;46588;-62
2022/06/19 06:28:49;;;;;;;22.80;5.40;;;29.40;16.00;;;;;;5069366;28;47057;-65
2022/06/19 06:31:16;;;;;;;22.53;5.20;;;29.40;16.10;;;;;;5070798;28;46682;-64
2022/06/19 06:33:42;;;;;;;20.20;4.60;;;29.40;16.00;;;;;;5069196;28;46437;-64
2022/06/19 06:36:08;;;;;;;16.53;5.27;;;29.40;16.00;;;;;;5070783;28;46408;-64
2022/06/19 06:38:34;;;;;;;17.70;4.70;;;29.40;16.10;;;;;;5070209;28;46371;-65
2022/06/19 06:41:00;;;;;;;16.47;4.13;;;29.30;16.00;;;;;;5069138;28;46472;-64
2022/06/19 06:43:27;;;;;;;27.23;4.20;;;29.40;16.10;;;;;;5072430;28;46432;-65
2022/06/19 06:45:52;;;;;;;21.03;4.60;;;29.60;16.10;;;;;;5072122;28;46502;-63
2022/06/19 06:48:19;;;;;;;23.93;5.00;;;29.70;15.90;;;;;;5067735;28;47044;-63
2022/06/19 06:50:46;;;;;;;20.43;4.40;;;29.90;15.80;;;;;;5069295;28;46479;-64
2022/06/19 06:53:12;;;;;;;20.77;5.20;;;30.00;15.60;;;;;;5070350;28;45828;-63
2022/06/19 06:55:39;;;;;;;21.70;5.27;;;30.10;15.70;;;;;;5071574;28;46337;-63
2022/06/19 06:58:05;;;;;;;20.37;5.07;;;30.20;15.20;;;;;;5065754;28;47306;-64
2022/06/19 07:00:30;;;;;;;16.97;4.63;;;30.40;15.10;;;;;;5069292;28;46300;-64
2022/06/19 07:02:56;;;;;;;26.20;5.77;;;30.50;14.90;;;;;;5071177;28;46523;-64
2022/06/19 07:05:22;;;;;;;16.93;4.70;;;30.60;14.80;;;;;;5067607;28;46594;-66
2022/06/19 07:07:47;;;;;;;19.50;4.47;;;30.60;15.00;;;;;;5071361;28;48001;-63
2022/06/19 07:10:13;;;;;;;19.93;5.17;;;30.60;15.00;;;;;;5065639;28;46502;-63
2022/06/19 07:12:39;;;;;;;21.50;5.10;;;30.50;15.10;;;;;;5074746;28;45876;-65
2022/06/19 07:15:05;;;;;;;27.33;5.77;;;30.30;15.50;;;;;;5072732;28;46647;-63
2022/06/19 07:17:31;;;;;;;20.60;5.03;;;30.10;15.70;;;;;;5076316;28;47151;-67
2022/06/19 07:19:56;;;;;;;25.77;5.60;;;30.00;16.90;;;;;;5070223;28;46595;-63
2022/06/19 07:22:22;;;;;;;12.20;4.50;;;29.90;16.10;;;;;;5069855;28;46795;-63
2022/06/19 07:24:47;;;;;;;23.07;5.60;;;29.90;16.60;;;;;;5071713;28;46420;-64
2022/06/19 07:27:13;;;;;;;26.70;5.77;;;29.90;17.10;;;;;;5072942;28;46322;-64
2022/06/19 07:29:44;;;;;;;26.33;5.30;;;29.90;17.00;;;;;;5078041;28;46357;-62
2022/06/19 07:32:10;;;;;;;18.20;4.73;;;29.90;17.20;;;;;;5074219;28;46405;-64
2022/06/19 07:34:38;;;;;;;17.50;5.17;;;30.10;17.60;;;;;;5070998;28;46448;-65
2022/06/19 07:37:04;;;;;;;18.37;5.30;;;30.10;17.60;;;;;;5076476;28;47123;-64
2022/06/19 07:39:30;;;;;;;33.20;5.17;;;30.30;17.30;;;;;;5073246;28;46615;-64
2022/06/19 07:41:56;;;;;;;16.27;5.13;;;30.60;16.90;;;;;;5074206;28;46334;-67
2022/06/19 07:44:22;;;;;;;32.70;6.23;;;30.80;16.50;;;;;;5074796;28;46405;-62
2022/06/19 07:52:16;;;;;;;27.33;5.10;;;31.40;15.90;;;;;;5072146;28;46341;-64
2022/06/19 07:54:41;;;;;;;19.77;5.57;;;31.40;16.00;;;;;;5071927;28;46369;-66
2022/06/19 07:57:07;;;;;;;16.73;4.50;;;31.40;16.20;;;;;;5073714;28;47283;-64
2022/06/19 07:59:32;;;;;;;17.70;5.10;;;31.40;15.70;;;;;;5075259;28;46507;-64
2022/06/19 08:01:58;;;;;;;20.00;5.00;;;31.70;15.60;;;;;;5074287;28;46466;-66
2022/06/19 08:04:24;;;;;;;16.83;5.13;;;31.90;15.20;;;;;;5073558;28;46356;-66
2022/06/19 08:06:50;;;;;;;23.67;5.10;;;31.90;15.10;;;;;;5073696;28;47054;-62
2022/06/19 08:09:15;;;;;;;19.00;4.90;;;31.90;15.10;;;;;;5070828;28;46479;-62
2022/06/19 08:11:41;;;;;;;19.30;4.63;;;32.10;14.90;;;;;;5074037;28;46474;-62
2022/06/19 08:14:06;;;;;;;19.90;5.37;;;32.20;14.70;;;;;;5072230;28;46511;-65
2022/06/19 08:16:33;;;;;;;21.40;5.30;;;32.50;14.10;;;;;;5071049;28;47019;-63
2022/06/19 08:18:58;;;;;;;30.70;5.27;;;32.60;13.30;;;;;;5070300;28;46312;-64
2022/06/19 08:21:24;;;;;;;25.67;5.03;;;32.40;13.50;;;;;;5074055;28;46355;-63
2022/06/19 08:23:49;;;;;;;18.67;5.03;;;32.30;13.50;;;;;;5069813;27;46299;-63
2022/06/19 08:26:15;;;;;;;19.90;4.80;;;32.20;13.90;;;;;;5068903;28;47192;-62
2022/06/19 08:31:15;;;;;;;26.73;5.43;;;32.70;13.70;;;;;;5068424;28;46413;-62
2022/06/19 08:33:41;;;;;;;23.63;6.00;;;32.80;13.10;;;;;;5067932;28;46374;-63
2022/06/19 08:36:12;;;;;;;19.73;5.67;;;32.90;12.70;;;;;;5068731;28;47221;-62
2022/06/19 08:38:47;;;;;;;17.70;5.10;;;32.90;11.90;;;;;;5071828;28;46436;-64
2022/06/19 08:41:34;;;;;;;22.77;5.43;;;32.50;12.60;;;;;;5086223;27;46441;-61
2022/06/19 08:44:17;;;;;;;27.30;5.47;;;32.20;13.10;;;;;;5071736;28;46364;-63
2022/06/19 08:47:23;;;;;;;24.50;5.23;;;32.10;12.80;;;;;;5068560;28;47047;-63
2022/06/19 08:50:03;;;;;;;31.07;5.90;;;32.00;13.50;;;;;;5069291;28;46357;-63
2022/06/19 08:52:45;;;;;;;22.70;6.27;;;32.10;13.70;;;;;;5067362;28;46470;-64
2022/06/19 08:55:17;;;;;;;20.30;5.17;;;32.40;13.10;;;;;;5070185;28;45866;-63
2022/06/19 08:58:18;;;;;;;21.30;5.10;;;32.90;12.80;;;;;;5069776;28;46524;-62
2022/06/19 09:00:59;;;;;;;19.87;5.50;;;33.20;12.10;;;;;;5055017;28;46677;-64
2022/06/19 09:06:48;;;;;;;17.00;5.17;;;33.60;11.30;;;;;;5067886;28;46440;-61
2022/06/19 09:09:26;;;;;;;14.90;4.90;;;33.70;11.20;;;;;;5055546;28;46547;-62
2022/06/19 09:12:03;;;;;;;22.43;5.07;;;34.00;11.30;;;;;;5068282;28;46491;-63
2022/06/19 09:14:47;;;;;;;30.07;6.00;;;33.90;11.30;;;;;;5072722;28;46369;-64
2022/06/19 09:17:24;;;;;;;12.73;5.03;;;33.80;12.00;;;;;;5070537;28;46630;-63
2022/06/19 09:19:54;;;;;;;26.77;5.20;;;33.90;12.30;;;;;;5069154;28;46497;-63
2022/06/19 09:22:49;;;;;;;18.40;5.00;;;34.20;11.50;;;;;;5070082;28;46759;-61
2022/06/19 09:25:32;;;;;;;19.77;5.53;;;34.50;10.70;;;;;;5071688;28;46459;-63
2022/06/19 09:28:32;;;;;;;14.50;5.20;;;34.70;10.00;;;;;;5069843;28;46513;-63
2022/06/19 09:31:22;;;;;;;22.10;5.70;;;34.80;10.20;;;;;;5071114;28;46972;-64
2022/06/19 09:34:03;;;;;;;25.03;5.77;;;35.00;10.30;;;;;;5067085;28;46428;-64
2022/06/19 09:37:00;;;;;;;21.53;5.70;;;34.90;9.40;;;;;;5071002;27;46421;-63
2022/06/19 09:39:34;;;;;;;21.97;5.37;;;34.80;9.40;;;;;;5071200;28;46400;-62
2022/06/19 09:42:12;;;;;;;21.60;5.60;;;34.90;9.50;;;;;;5068696;28;46503;-64
2022/06/19 09:44:45;;;;;;;15.27;5.10;;;34.90;9.40;;;;;;5064743;28;46480;-65
2022/06/19 09:47:18;;;;;;;22.50;5.93;;;34.70;9.90;;;;;;5071564;28;46416;-65
2022/06/19 09:49:46;;;;;;;16.00;5.93;;;34.60;9.30;;;;;;5065137;28;46449;-64
2022/06/19 09:52:21;;;;;;;13.90;4.90;;;34.60;10.00;;;;;;5063477;28;46432;-64
2022/06/19 09:54:58;;;;;;;15.93;5.70;;;34.80;9.40;;;;;;5072699;28;46486;-64
2022/06/19 09:57:34;;;;;;;20.23;5.63;;;34.80;9.30;;;;;;5070302;28;45743;-65
2022/06/19 10:00:17;;;;;;;17.40;6.00;;;34.80;9.60;;;;;;5067838;28;46551;-66
2022/06/19 10:02:58;;;;;;;25.33;5.80;;;34.80;8.70;;;;;;5064587;28;47044;-63
2022/06/19 10:05:45;;;;;;;32.40;5.67;;;34.90;9.20;;;;;;5075499;28;46682;-67
2022/06/19 10:08:38;;;;;;;15.60;5.10;;;35.00;8.80;;;;;;5065755;28;46389;-63
2022/06/19 10:11:16;;;;;;;14.93;6.63;;;34.90;8.80;;;;;;5071890;28;46449;-64
2022/06/19 10:14:02;;;;;;;17.80;6.10;;;35.20;8.90;;;;;;5068603;28;47132;-63
2022/06/19 10:16:33;;;;;;;22.47;6.03;;;35.40;9.10;;;;;;5071081;28;46404;-62
2022/06/19 10:19:09;;;;;;;19.57;5.77;;;35.50;8.90;;;;;;5066666;28;46460;-66
2022/06/19 10:22:13;;;;;;;16.17;6.07;;;35.70;9.20;;;;;;5073488;28;46503;-67
2022/06/19 10:24:42;;;;;;;15.17;5.50;;;35.70;8.30;;;;;;5069398;28;46341;-63
2022/06/19 10:27:24;;;;;;;15.40;5.60;;;35.50;8.50;;;;;;5070303;28;46738;-63
2022/06/19 10:30:27;;;;;;;16.00;5.67;;;35.20;8.90;;;;;;5068592;28;45794;-64
2022/06/19 10:33:25;;;;;;;15.53;5.63;;;35.10;8.90;;;;;;5042707;28;46448;-63
2022/06/19 10:36:18;;;;;;;20.33;6.03;;;35.40;9.10;;;;;;5069887;28;47151;-63
2022/06/19 10:38:50;;;;;;;17.23;5.93;;;35.70;8.20;;;;;;5037659;28;46602;-67
2022/06/19 10:44:24;;;;;;;17.97;6.00;;;35.50;8.60;;;;;;5064515;28;46386;-63
2022/06/19 10:47:05;;;;;;;18.33;5.70;;;35.70;8.10;;;;;;5068054;28;47276;-62
2022/06/19 10:49:54;;;;;;;15.93;6.33;;;35.90;7.20;;;;;;5070933;28;46373;-62
2022/06/19 10:52:48;;;;;;;14.23;4.80;;;35.80;6.50;;;;;;5069945;28;46390;-62
2022/06/19 10:55:40;;;;;;;18.13;6.10;;;35.90;6.50;;;;;;5068305;28;46532;-66
2022/06/19 10:58:09;;;;;;;14.23;5.87;;;35.80;6.20;;;;;;5066055;28;46357;-62
2022/06/19 11:00:34;;;;;;;25.93;5.33;;;35.80;6.60;;;;;;5065403;28;46416;-65
2022/06/19 11:06:10;;;;;;;14.07;5.83;;;36.00;6.60;;;;;;5070889;28;46375;-62
2022/06/19 11:08:39;;;;;;;12.80;5.80;;;35.80;6.00;;;;;;5071450;28;46576;-62
2022/06/19 11:11:06;;;;;;;15.33;5.93;;;35.80;7.50;;;;;;5071437;28;46385;-62
2022/06/19 11:13:56;;;;;;;16.50;5.37;;;36.10;6.70;;;;;;5068992;28;46385;-64
2022/06/19 11:16:22;;;;;;;11.40;5.83;;;36.40;6.00;;;;;;5069238;28;46392;-65
2022/06/19 11:18:51;;;;;;;18.37;6.20;;;36.40;5.70;;;;;;5067386;28;46431;-66
2022/06/19 11:21:21;;;;;;;16.30;5.43;;;36.40;6.00;;;;;;5070804;28;46490;-62
2022/06/19 11:23:47;;;;;;;13.83;5.70;;;36.40;5.60;;;;;;5069291;28;46325;-63
2022/06/19 11:26:22;;;;;;;20.70;6.10;;;36.30;6.10;;;;;;5069750;28;46347;-63
2022/06/19 11:28:56;;;;;;;20.20;5.43;;;36.30;5.90;;;;;;5068357;28;46499;-64
2022/06/19 11:31:32;;;;;;;19.97;6.30;;;36.40;5.20;;;;;;5069837;28;46652;-62
2022/06/19 11:34:43;;;;;;;15.73;5.83;;;36.30;5.30;;;;;;5070917;28;46522;-63
2022/06/19 11:37:24;;;;;;;15.30;5.80;;;36.10;5.60;;;;;;5070284;28;46395;-66
2022/06/19 11:39:58;;;;;;;15.90;5.50;;;36.00;5.10;;;;;;5072845;28;46935;-62
2022/06/19 11:42:32;;;;;;;17.40;6.13;;;35.80;5.10;;;;;;5071251;27;46527;-63
2022/06/19 11:44:59;;;;;;;19.67;5.73;;;35.90;5.40;;;;;;5071505;28;46614;-63
2022/06/19 11:47:35;;;;;;;13.57;5.90;;;36.20;4.80;;;;;;5069349;28;46444;-65
2022/06/19 11:50:28;;;;;;;18.43;5.77;;;36.20;4.60;;;;;;5064854;28;48871;-63
2022/06/19 11:53:09;;;;;;;15.90;6.50;;;36.10;4.80;;;;;;5059019;27;46455;-63
2022/06/19 11:55:38;;;;;;;20.40;6.40;;;36.20;4.90;;;;;;5067934;28;46522;-63
2022/06/19 11:58:16;;;;;;;19.27;5.67;;;36.00;4.80;;;;;;5069107;27;46467;-67
2022/06/19 12:00:44;;;;;;;22.50;6.70;;;35.80;5.20;;;;;;5070055;28;47991;-62
2022/06/19 12:03:27;;;;;;;16.40;5.43;;;35.80;6.00;;;;;;5071660;28;46364;-64
2022/06/19 12:05:59;;;;;;;16.97;5.57;;;36.00;5.80;;;;;;5073873;28;46385;-64
2022/06/19 12:08:32;;;;;;;18.67;6.00;;;36.10;5.50;;;;;;5070675;28;46465;-66
2022/06/19 12:11:05;;;;;;;19.00;5.97;;;36.10;5.00;;;;;;5071554;28;46500;-64
2022/06/19 12:13:42;;;;;;;18.17;6.00;;;36.20;4.60;;;;;;5068820;28;46443;-62
2022/06/19 12:16:17;;;;;;;17.83;6.07;;;36.30;4.00;;;;;;5073542;28;46528;-62
2022/06/19 12:18:43;;;;;;;14.90;5.47;;;36.40;3.90;;;;;;5072758;28;46385;-63
2022/06/19 12:21:27;;;;;;;24.30;5.93;;;36.50;3.70;;;;;;5070573;28;47753;-63
2022/06/19 12:24:13;;;;;;;18.63;5.53;;;36.60;3.40;;;;;;5072127;28;46345;-63
2022/06/19 12:26:44;;;;;;;24.33;4.83;;;36.50;3.50;;;;;;5071596;28;46522;-64
2022/06/19 12:29:27;;;;;;;16.57;5.23;;;36.40;3.10;;;;;;5071838;28;46390;-62
2022/06/19 12:31:57;;;;;;;21.20;5.10;;;36.30;3.30;;;;;;5070295;28;46616;-64
2022/06/19 12:34:44;;;;;;;21.23;5.40;;;36.40;3.60;;;;;;5068828;28;46746;-65
2022/06/19 12:37:27;;;;;;;15.73;4.50;;;36.40;3.30;;;;;;5071591;28;46440;-63
2022/06/19 12:39:54;;;;;;;22.10;4.60;;;36.40;2.70;;;;;;5065877;28;46416;-64
2022/06/19 12:42:33;;;;;;;13.50;4.47;;;36.30;2.60;;;;;;5068090;28;46991;-64
2022/06/19 12:45:09;;;;;;;23.73;4.93;;;36.30;2.30;;;;;;5075568;28;45842;-67
2022/06/19 12:47:56;;;;;;;19.13;4.70;;;36.40;2.50;;;;;;5067691;28;46365;-64
2022/06/19 12:50:34;;;;;;;21.43;5.07;;;36.50;2.20;;;;;;5071210;28;46363;-63
2022/06/19 12:53:32;;;;;;;15.93;4.93;;;36.60;2.20;;;;;;5068133;28;47167;-66
2022/06/19 12:56:15;;;;;;;28.63;5.50;;;36.60;2.00;;;;;;5075105;28;46381;-65
2022/06/19 12:59:06;;;;;;;18.10;4.97;;;36.50;2.60;;;;;;5067648;28;46498;-63
2022/06/19 13:01:55;;;;;;;23.23;3.90;;;36.50;2.60;;;;;;5070710;28;46310;-66
2022/06/19 13:04:30;;;;;;;16.50;4.83;;;36.50;2.30;;;;;;5067824;28;49485;-63
2022/06/19 13:07:07;;;;;;;20.77;5.00;;;36.60;3.00;;;;;;5079317;28;47014;-63
2022/06/19 13:09:33;;;;;;;13.60;4.97;;;36.40;2.80;;;;;;5071405;27;46536;-64
2022/06/19 13:12:23;;;;;;;22.50;4.70;;;36.40;3.00;;;;;;5071013;28;46527;-67
2022/06/19 13:15:04;;;;;;;22.43;5.70;;;36.30;3.40;;;;;;5067662;28;46459;-62
2022/06/19 13:18:11;;;;;;;30.87;5.67;;;36.50;2.70;;;;;;5070944;28;46395;-66
2022/06/19 13:20:44;;;;;;;19.03;5.30;;;36.60;2.30;;;;;;5048190;28;46487;-62
2022/06/19 13:23:35;;;;;;;16.30;5.40;;;36.70;2.40;;;;;;5072447;28;46499;-63
2022/06/19 13:29:23;;;;;;;18.80;4.57;;;36.60;2.20;;;;;;5064398;28;46397;-62